Time;durP1;ratioP1;P1;durP2;ratioP2;P2;SDS_P1;SDS_P2;PMS_P1;PMS_P2;Temp;Humidity;BMP_temperature;BMP_pressure;BME280_temperature;BME280_humidity;BME280_pressure;Samples;Min_cycle;Max_cycle;Signal;HPM_P1;HPM_P2
2021/08/30 00:00:06;;;;;;;10.45;2.83;;;15.30;99.90;;;;;;5053070;28;20098;-60
2021/08/30 00:02:32;;;;;;;11.15;2.78;;;15.20;99.90;;;;;;5053982;28;20509;-62
2021/08/30 00:04:58;;;;;;;9.50;2.88;;;15.20;99.90;;;;;;5053079;28;20033;-61
2021/08/30 00:07:24;;;;;;;8.38;2.20;;;15.20;99.90;;;;;;5052980;28;20052;-60
2021/08/30 00:09:50;;;;;;;14.43;2.70;;;15.10;99.90;;;;;;5053105;28;20075;-62
2021/08/30 00:12:15;;;;;;;10.45;2.88;;;15.20;99.90;;;;;;5053501;28;20029;-62
2021/08/30 00:14:41;;;;;;;10.73;2.50;;;15.10;99.90;;;;;;5052731;28;20376;-60
2021/08/30 00:17:07;;;;;;;13.43;3.47;;;15.10;99.90;;;;;;5053596;28;20045;-59
2021/08/30 00:19:34;;;;;;;14.23;3.08;;;15.00;99.90;;;;;;5052458;28;20029;-60
2021/08/30 00:22:02;;;;;;;9.55;2.67;;;15.10;99.90;;;;;;5053664;28;20057;-59
2021/08/30 00:24:28;;;;;;;10.30;2.92;;;15.10;99.90;;;;;;5052913;28;20037;-60
2021/08/30 00:26:55;;;;;;;10.45;2.85;;;15.10;99.90;;;;;;5050581;28;20040;-60
2021/08/30 00:29:25;;;;;;;13.70;2.30;;;15.10;99.90;;;;;;5039224;28;20095;-61
2021/08/30 00:31:55;;;;;;;10.80;3.03;;;15.00;99.90;;;;;;5039463;28;20036;-59
2021/08/30 00:34:21;;;;;;;11.25;2.42;;;15.00;99.90;;;;;;5052614;28;20431;-61
2021/08/30 00:36:47;;;;;;;8.57;2.40;;;15.00;99.90;;;;;;5053182;28;20047;-59
2021/08/30 00:39:23;;;;;;;13.05;3.13;;;15.00;99.90;;;;;;5052506;28;20032;-61
2021/08/30 00:41:50;;;;;;;10.95;2.67;;;15.00;99.90;;;;;;5053225;28;20029;-59
2021/08/30 00:44:16;;;;;;;13.68;2.95;;;15.00;99.90;;;;;;5052336;28;20040;-61
2021/08/30 00:46:42;;;;;;;6.35;2.30;;;15.00;99.90;;;;;;5053085;28;20033;-61
2021/08/30 00:49:07;;;;;;;15.82;2.72;;;14.90;99.90;;;;;;5045583;28;20040;-59
2021/08/30 00:51:33;;;;;;;10.85;3.03;;;15.00;99.90;;;;;;5052827;28;20040;-61
2021/08/30 00:53:59;;;;;;;7.55;2.70;;;14.90;99.90;;;;;;5052321;28;20025;-61
2021/08/30 00:56:26;;;;;;;9.80;2.90;;;14.90;99.90;;;;;;5053126;28;20049;-61
2021/08/30 00:58:53;;;;;;;9.73;2.83;;;15.00;99.90;;;;;;5051840;28;20037;-58
2021/08/30 01:01:19;;;;;;;9.75;2.88;;;14.90;99.90;;;;;;5051633;28;20035;-60
2021/08/30 01:03:45;;;;;;;8.77;2.47;;;14.90;99.90;;;;;;5051260;28;20029;-61
2021/08/30 01:06:31;;;;;;;7.35;2.70;;;14.90;99.90;;;;;;5052875;28;20029;-59
2021/08/30 01:09:13;;;;;;;12.25;2.78;;;15.00;99.90;;;;;;5060426;28;20437;-59
2021/08/30 01:11:47;;;;;;;9.82;2.35;;;14.90;99.90;;;;;;5052871;28;20422;-60
2021/08/30 01:14:16;;;;;;;10.07;2.30;;;14.80;99.90;;;;;;5050723;28;20523;-60
2021/08/30 01:16:44;;;;;;;12.27;2.60;;;14.90;99.90;;;;;;5039949;28;20037;-61
2021/08/30 01:19:24;;;;;;;10.38;2.60;;;14.90;99.90;;;;;;5051817;28;20033;-60
2021/08/30 01:21:50;;;;;;;7.43;2.20;;;14.90;99.90;;;;;;5052704;28;20021;-60
2021/08/30 01:24:20;;;;;;;13.20;2.85;;;15.00;99.90;;;;;;5051477;28;20025;-60
2021/08/30 01:26:51;;;;;;;15.18;2.67;;;15.00;99.90;;;;;;5049424;28;20037;-61
2021/08/30 01:29:43;;;;;;;11.35;2.42;;;15.00;99.90;;;;;;5051428;28;20048;-59
2021/08/30 01:32:28;;;;;;;11.18;2.30;;;15.00;99.90;;;;;;5054509;28;20071;-62
2021/08/30 01:34:55;;;;;;;6.25;2.22;;;15.00;99.90;;;;;;5051402;28;20491;-60
2021/08/30 01:37:22;;;;;;;8.13;2.58;;;15.00;99.90;;;;;;5052259;28;20060;-61
2021/08/30 01:39:49;;;;;;;11.43;2.60;;;15.00;99.90;;;;;;5049837;28;20083;-61
2021/08/30 01:42:15;;;;;;;9.15;2.92;;;14.90;99.90;;;;;;5052172;28;20082;-60
2021/08/30 01:44:41;;;;;;;16.48;2.40;;;15.00;99.90;;;;;;5051104;28;20064;-60
2021/08/30 01:47:07;;;;;;;11.63;2.72;;;14.90;99.90;;;;;;5051895;28;20063;-61
2021/08/30 01:49:33;;;;;;;17.27;2.45;;;14.90;99.90;;;;;;5051167;28;20036;-61
2021/08/30 01:51:59;;;;;;;11.55;2.60;;;15.00;99.90;;;;;;5037717;28;20032;-61
2021/08/30 01:54:25;;;;;;;8.85;2.22;;;15.00;99.90;;;;;;5041380;28;20033;-58
2021/08/30 01:56:54;;;;;;;7.88;2.75;;;14.90;99.90;;;;;;5047757;28;20078;-60
2021/08/30 02:02:07;;;;;;;9.82;2.58;;;15.00;99.90;;;;;;5051570;28;20060;-61
2021/08/30 02:04:34;;;;;;;13.48;2.92;;;15.00;99.90;;;;;;5050829;28;20063;-60
2021/08/30 02:07:00;;;;;;;17.38;2.83;;;14.90;99.90;;;;;;5051491;28;20102;-60
2021/08/30 02:09:27;;;;;;;16.80;3.22;;;15.00;99.90;;;;;;5050881;28;20028;-61
2021/08/30 02:11:52;;;;;;;9.27;2.33;;;15.00;99.90;;;;;;5051414;28;20117;-60
2021/08/30 02:14:19;;;;;;;11.65;2.50;;;15.00;99.90;;;;;;5050580;28;20107;-59
2021/08/30 02:16:49;;;;;;;12.88;2.53;;;15.00;99.90;;;;;;5051559;28;20025;-63
2021/08/30 02:19:27;;;;;;;11.20;2.63;;;15.00;99.90;;;;;;5050899;28;20032;-60
2021/08/30 02:22:03;;;;;;;15.10;3.13;;;15.00;99.90;;;;;;5051188;28;20039;-60
2021/08/30 02:24:45;;;;;;;11.38;2.85;;;15.00;99.90;;;;;;5050373;28;20402;-62
2021/08/30 02:27:38;;;;;;;12.80;2.60;;;15.00;99.90;;;;;;5048302;28;20470;-60
2021/08/30 02:30:09;;;;;;;10.48;2.58;;;14.90;99.90;;;;;;5050418;28;20052;-59
2021/08/30 02:32:36;;;;;;;12.07;3.28;;;14.90;99.90;;;;;;5051131;28;20040;-58
2021/08/30 02:35:06;;;;;;;9.70;2.80;;;15.00;99.90;;;;;;5050201;28;20029;-60
2021/08/30 02:37:36;;;;;;;14.52;3.08;;;15.00;99.90;;;;;;5046249;28;20545;-59
2021/08/30 02:40:03;;;;;;;15.18;3.35;;;15.00;99.90;;;;;;5024548;28;20574;-59
2021/08/30 02:42:32;;;;;;;13.40;2.50;;;15.00;99.90;;;;;;5030511;28;20368;-61
2021/08/30 02:44:59;;;;;;;13.95;2.90;;;15.00;99.90;;;;;;5030588;28;20043;-60
2021/08/30 02:47:27;;;;;;;11.32;3.00;;;14.90;99.90;;;;;;5031120;28;20075;-59
2021/08/30 02:49:53;;;;;;;11.40;2.92;;;14.90;99.90;;;;;;5029984;28;20037;-60
2021/08/30 02:52:21;;;;;;;10.88;2.53;;;15.00;99.90;;;;;;5031073;28;20078;-59
2021/08/30 02:54:50;;;;;;;17.52;2.85;;;14.90;99.90;;;;;;5030451;28;20041;-60
2021/08/30 02:57:16;;;;;;;14.48;2.50;;;14.90;99.90;;;;;;5030581;28;20068;-61
2021/08/30 02:59:42;;;;;;;8.82;2.67;;;14.90;99.90;;;;;;5030229;28;20030;-59
2021/08/30 03:02:10;;;;;;;14.38;2.80;;;14.90;99.90;;;;;;5030920;28;20033;-61
2021/08/30 03:04:36;;;;;;;12.75;2.67;;;14.80;99.90;;;;;;5029971;28;20028;-59
2021/08/30 03:07:03;;;;;;;12.63;2.78;;;14.80;99.90;;;;;;5030935;28;20037;-59
2021/08/30 03:09:29;;;;;;;15.48;2.83;;;14.80;99.90;;;;;;5030330;28;20029;-61
2021/08/30 03:11:56;;;;;;;10.32;3.03;;;14.90;99.90;;;;;;5030676;28;20025;-60
2021/08/30 03:14:24;;;;;;;13.57;2.70;;;14.90;99.90;;;;;;5030017;28;20029;-60
2021/08/30 03:16:52;;;;;;;11.95;3.40;;;14.90;99.90;;;;;;5029279;28;20398;-59
2021/08/30 03:19:19;;;;;;;9.05;2.78;;;15.00;99.90;;;;;;5030144;28;20018;-58
2021/08/30 03:21:47;;;;;;;13.98;3.33;;;14.90;99.90;;;;;;5030806;28;20487;-59
2021/08/30 03:24:13;;;;;;;10.20;2.40;;;14.90;99.90;;;;;;5029890;28;20033;-60
2021/08/30 03:26:40;;;;;;;11.07;2.83;;;14.90;99.90;;;;;;5031080;28;20475;-61
2021/08/30 03:29:06;;;;;;;10.98;3.17;;;15.00;99.90;;;;;;5034637;28;20518;-60
2021/08/30 03:31:34;;;;;;;12.07;3.40;;;15.00;99.90;;;;;;5034099;28;20152;-60
2021/08/30 03:34:01;;;;;;;11.43;3.10;;;15.00;99.90;;;;;;5034747;28;20124;-59
2021/08/30 03:36:28;;;;;;;8.98;3.08;;;15.00;99.90;;;;;;5033514;28;20045;-61
2021/08/30 03:38:58;;;;;;;11.02;3.30;;;14.90;99.90;;;;;;5034254;28;20103;-59
2021/08/30 03:41:26;;;;;;;12.35;3.30;;;14.90;99.90;;;;;;5033691;28;20032;-60
2021/08/30 03:43:54;;;;;;;10.23;3.35;;;14.80;99.90;;;;;;5034654;28;20069;-60
2021/08/30 03:46:21;;;;;;;14.45;4.00;;;14.70;99.90;;;;;;5033667;28;20025;-61
2021/08/30 03:48:47;;;;;;;12.82;3.50;;;14.70;99.90;;;;;;5034476;28;20417;-61
2021/08/30 03:51:14;;;;;;;13.88;4.63;;;14.70;99.90;;;;;;5033333;28;20033;-62
2021/08/30 03:53:41;;;;;;;14.52;4.00;;;14.70;99.90;;;;;;5034135;28;20029;-59
2021/08/30 03:56:09;;;;;;;13.10;4.13;;;14.60;99.90;;;;;;5033382;28;20103;-62
2021/08/30 03:58:37;;;;;;;11.48;4.13;;;14.60;99.90;;;;;;5034165;28;20079;-61
2021/08/30 04:01:05;;;;;;;14.02;4.13;;;14.60;99.90;;;;;;5033587;28;20124;-59
2021/08/30 04:03:37;;;;;;;12.70;4.03;;;14.60;99.90;;;;;;5033810;28;20695;-62
2021/08/30 04:06:05;;;;;;;15.73;4.45;;;14.60;99.90;;;;;;5033374;28;20033;-61
2021/08/30 04:08:31;;;;;;;13.63;4.03;;;14.60;99.90;;;;;;5033927;28;20022;-60
2021/08/30 04:10:59;;;;;;;10.98;3.80;;;14.60;99.90;;;;;;5033256;28;20525;-61
2021/08/30 04:13:25;;;;;;;12.63;3.95;;;14.50;99.90;;;;;;5033871;28;20039;-60
2021/08/30 04:15:51;;;;;;;15.82;4.30;;;14.60;99.90;;;;;;5033031;28;20029;-60
2021/08/30 04:18:16;;;;;;;15.77;4.25;;;14.50;99.90;;;;;;5033704;28;20037;-59
2021/08/30 04:20:42;;;;;;;13.52;4.18;;;14.50;99.90;;;;;;5032767;28;20392;-60
2021/08/30 04:23:08;;;;;;;15.40;4.05;;;14.50;99.90;;;;;;5033782;28;20105;-60
2021/08/30 04:25:34;;;;;;;12.98;3.72;;;14.40;99.90;;;;;;5032467;28;20365;-60
2021/08/30 04:27:59;;;;;;;16.45;4.05;;;14.40;99.90;;;;;;5033483;28;20085;-59
2021/08/30 04:30:25;;;;;;;21.33;4.30;;;14.40;99.90;;;;;;5032689;28;20033;-59
2021/08/30 04:32:54;;;;;;;12.65;4.03;;;14.40;99.90;;;;;;5033669;28;20026;-62
2021/08/30 04:35:20;;;;;;;23.85;5.85;;;14.40;99.90;;;;;;5032844;28;20041;-59
2021/08/30 04:37:47;;;;;;;12.23;3.63;;;14.50;99.90;;;;;;5033006;28;20112;-61
2021/08/30 04:40:13;;;;;;;13.95;4.22;;;14.50;99.90;;;;;;5031943;28;20037;-61
2021/08/30 04:42:38;;;;;;;14.13;3.97;;;14.40;99.90;;;;;;5033343;28;20095;-61
2021/08/30 04:45:05;;;;;;;11.10;3.30;;;14.50;99.90;;;;;;5032684;28;20025;-59
2021/08/30 04:47:32;;;;;;;15.23;3.45;;;14.50;99.90;;;;;;5033027;28;20034;-61
2021/08/30 04:49:58;;;;;;;16.45;3.70;;;14.50;99.90;;;;;;5032422;28;20377;-61
2021/08/30 04:52:24;;;;;;;11.02;3.63;;;14.50;99.90;;;;;;5033003;28;20032;-59
2021/08/30 04:54:49;;;;;;;10.23;3.70;;;14.50;99.90;;;;;;5032692;28;20033;-60
2021/08/30 04:57:15;;;;;;;16.70;3.80;;;14.50;99.90;;;;;;5032864;28;20492;-59
2021/08/30 04:59:41;;;;;;;12.20;3.60;;;14.50;99.90;;;;;;5033136;28;20029;-60
2021/08/30 05:02:07;;;;;;;15.93;3.83;;;14.50;99.90;;;;;;5032378;28;20118;-61
2021/08/30 05:04:32;;;;;;;15.90;3.75;;;14.50;99.90;;;;;;5033099;28;20107;-61
2021/08/30 05:06:58;;;;;;;9.85;3.30;;;14.60;99.90;;;;;;5032278;28;20029;-60
2021/08/30 05:09:24;;;;;;;12.77;3.83;;;14.60;99.90;;;;;;5033016;28;20028;-60
2021/08/30 05:11:49;;;;;;;10.02;3.30;;;14.60;99.90;;;;;;5031919;28;20025;-61
2021/08/30 05:14:15;;;;;;;11.48;3.53;;;14.60;99.90;;;;;;5033331;28;20037;-62
2021/08/30 05:16:41;;;;;;;14.15;3.85;;;14.60;99.90;;;;;;5031960;28;20113;-61
2021/08/30 05:19:06;;;;;;;13.05;4.13;;;14.60;99.90;;;;;;5032593;28;20392;-61
2021/08/30 05:21:32;;;;;;;12.98;3.53;;;14.60;99.90;;;;;;5030846;28;20075;-61
2021/08/30 05:23:58;;;;;;;12.27;3.83;;;14.60;99.90;;;;;;5032319;28;20033;-60
2021/08/30 05:26:24;;;;;;;17.20;3.53;;;14.60;99.90;;;;;;5035029;28;20029;-60
2021/08/30 05:28:50;;;;;;;15.95;3.70;;;14.60;99.90;;;;;;5032068;28;20076;-61
2021/08/30 05:31:16;;;;;;;8.88;3.20;;;14.60;99.90;;;;;;5031600;28;20049;-60
2021/08/30 05:33:42;;;;;;;12.63;3.70;;;14.70;99.90;;;;;;5032723;28;20025;-60
2021/08/30 05:36:07;;;;;;;13.52;3.60;;;14.70;99.90;;;;;;5026854;28;20133;-60
2021/08/30 05:38:33;;;;;;;11.40;3.10;;;14.70;99.90;;;;;;5023780;28;20080;-60
2021/08/30 05:40:59;;;;;;;15.73;3.55;;;14.70;99.90;;;;;;5031292;28;20026;-62
2021/08/30 05:43:25;;;;;;;10.73;3.30;;;14.70;99.90;;;;;;5032910;28;20101;-61
2021/08/30 05:45:51;;;;;;;11.85;3.20;;;14.70;99.90;;;;;;5031276;28;20049;-62
2021/08/30 05:48:17;;;;;;;15.48;3.70;;;14.70;99.90;;;;;;5031943;28;20061;-61
2021/08/30 05:50:42;;;;;;;17.65;3.55;;;14.70;99.90;;;;;;5030892;28;20029;-61
2021/08/30 05:53:08;;;;;;;11.18;3.40;;;14.70;99.90;;;;;;5032019;28;20036;-61
2021/08/30 05:55:34;;;;;;;12.57;3.45;;;14.70;99.90;;;;;;5031203;28;20064;-60
2021/08/30 05:57:59;;;;;;;14.75;3.00;;;14.80;99.90;;;;;;5031795;28;20407;-61
2021/08/30 06:00:25;;;;;;;17.48;3.70;;;14.80;99.90;;;;;;5031285;28;20021;-60
2021/08/30 06:02:51;;;;;;;15.95;3.65;;;14.80;99.90;;;;;;5031594;28;20487;-60
2021/08/30 06:05:17;;;;;;;13.07;3.20;;;14.80;99.90;;;;;;5034338;28;20044;-61
2021/08/30 06:07:42;;;;;;;11.90;3.15;;;14.90;99.90;;;;;;5042444;28;20029;-62
2021/08/30 06:10:09;;;;;;;11.95;2.75;;;14.90;99.90;;;;;;5031927;28;20545;-59
2021/08/30 06:12:36;;;;;;;14.95;3.40;;;14.90;99.90;;;;;;5030995;28;20072;-62
2021/08/30 06:15:03;;;;;;;8.10;2.72;;;14.90;99.90;;;;;;5031831;28;20058;-60
2021/08/30 06:17:29;;;;;;;14.32;3.22;;;14.90;99.90;;;;;;5030664;28;20037;-61
2021/08/30 06:19:55;;;;;;;10.85;3.08;;;14.90;99.90;;;;;;5031357;28;20384;-59
2021/08/30 06:22:21;;;;;;;8.23;2.50;;;14.90;99.90;;;;;;5030673;28;20021;-60
2021/08/30 06:24:47;;;;;;;14.68;3.10;;;14.90;99.90;;;;;;5031430;28;20472;-61
2021/08/30 06:27:14;;;;;;;9.38;2.50;;;14.90;99.90;;;;;;5030337;28;20036;-61
2021/08/30 06:29:40;;;;;;;11.25;3.22;;;14.90;99.90;;;;;;5031473;28;20480;-60
2021/08/30 06:32:06;;;;;;;11.65;3.00;;;14.90;99.90;;;;;;5030501;28;20040;-61
2021/08/30 06:34:32;;;;;;;10.65;2.63;;;14.90;99.90;;;;;;5031359;28;20021;-60
2021/08/30 06:36:58;;;;;;;16.40;3.50;;;14.90;99.90;;;;;;5030586;28;20403;-60
2021/08/30 06:39:23;;;;;;;15.15;2.95;;;15.00;99.90;;;;;;5031241;28;20033;-61
2021/08/30 06:41:49;;;;;;;8.40;2.85;;;14.90;99.90;;;;;;5030475;28;20029;-62
2021/08/30 06:44:15;;;;;;;16.35;3.55;;;15.00;99.90;;;;;;5030866;28;20026;-64
2021/08/30 06:46:41;;;;;;;10.10;2.70;;;15.00;99.90;;;;;;5030304;28;20104;-61
2021/08/30 06:49:06;;;;;;;9.20;2.63;;;15.00;99.90;;;;;;5031147;28;20025;-61
2021/08/30 06:51:32;;;;;;;8.90;2.72;;;15.00;99.90;;;;;;5029755;28;20049;-61
2021/08/30 06:53:58;;;;;;;14.00;3.05;;;15.00;99.90;;;;;;5031192;28;20411;-61
2021/08/30 06:56:23;;;;;;;13.98;3.05;;;15.00;99.90;;;;;;5030196;28;20037;-60
2021/08/30 06:58:49;;;;;;;8.57;2.72;;;15.00;99.90;;;;;;5031064;28;20029;-61
2021/08/30 07:01:15;;;;;;;8.98;2.67;;;15.00;99.90;;;;;;5029502;28;20040;-62
2021/08/30 07:03:40;;;;;;;14.52;3.05;;;15.00;99.90;;;;;;5030761;28;20100;-60
2021/08/30 07:06:06;;;;;;;13.00;3.20;;;15.10;99.90;;;;;;5030579;28;20456;-59
2021/08/30 07:08:32;;;;;;;9.63;3.03;;;15.10;99.90;;;;;;5030876;28;20387;-60
2021/08/30 07:10:58;;;;;;;11.40;3.47;;;15.10;99.90;;;;;;5030101;28;20700;-59
2021/08/30 07:13:24;;;;;;;12.55;3.60;;;15.00;99.90;;;;;;5030759;28;20013;-60
2021/08/30 07:15:49;;;;;;;12.65;3.03;;;15.00;99.90;;;;;;5030452;28;20056;-60
2021/08/30 07:18:16;;;;;;;6.47;3.28;;;15.00;99.90;;;;;;5030531;28;20083;-62
2021/08/30 07:20:42;;;;;;;10.30;3.40;;;15.00;99.90;;;;;;5030745;28;20538;-61
2021/08/30 07:23:08;;;;;;;11.43;3.33;;;15.00;99.90;;;;;;5030072;28;20173;-60
2021/08/30 07:25:34;;;;;;;10.85;3.35;;;15.00;99.90;;;;;;5030689;28;20120;-60
2021/08/30 07:28:00;;;;;;;13.90;3.85;;;15.00;99.90;;;;;;5029550;28;20510;-59
2021/08/30 07:30:25;;;;;;;15.10;3.80;;;15.00;99.90;;;;;;5030916;28;20030;-60
2021/08/30 07:32:52;;;;;;;12.93;3.70;;;14.90;99.90;;;;;;5029854;28;20029;-60
2021/08/30 07:35:18;;;;;;;13.35;3.53;;;14.90;99.90;;;;;;5030754;28;20036;-60
2021/08/30 07:37:44;;;;;;;10.15;3.70;;;14.90;99.90;;;;;;5029872;28;20045;-59
2021/08/30 07:40:10;;;;;;;12.48;3.90;;;15.00;99.90;;;;;;5030507;28;20071;-59
2021/08/30 07:42:36;;;;;;;15.07;3.70;;;14.90;99.90;;;;;;5029895;28;20329;-63
2021/08/30 07:45:02;;;;;;;11.85;4.00;;;14.90;99.90;;;;;;5030474;28;20038;-60
2021/08/30 07:47:28;;;;;;;11.30;3.53;;;14.90;99.90;;;;;;5029876;28;20041;-57
2021/08/30 07:49:54;;;;;;;9.50;3.42;;;15.00;99.90;;;;;;5026595;28;20030;-59
2021/08/30 07:52:20;;;;;;;10.25;3.47;;;14.90;99.90;;;;;;5018703;28;20033;-62
2021/08/30 07:54:47;;;;;;;9.73;3.30;;;14.90;99.90;;;;;;5062460;28;20102;-59
2021/08/30 07:57:13;;;;;;;15.52;3.75;;;14.90;99.90;;;;;;5029733;28;20034;-61
2021/08/30 07:59:39;;;;;;;5.43;2.58;;;14.90;99.90;;;;;;5030430;28;20112;-60
2021/08/30 08:02:05;;;;;;;8.00;3.00;;;14.90;99.90;;;;;;5029454;28;20021;-60
2021/08/30 08:04:30;;;;;;;9.15;3.25;;;15.00;99.90;;;;;;5030539;28;20025;-61
2021/08/30 08:06:56;;;;;;;9.90;3.33;;;14.90;99.90;;;;;;5029384;28;20035;-60
2021/08/30 08:09:22;;;;;;;6.88;2.60;;;14.90;99.90;;;;;;5030233;28;20018;-60
2021/08/30 08:11:47;;;;;;;8.07;3.10;;;15.00;99.90;;;;;;5029366;28;20065;-59
2021/08/30 08:14:14;;;;;;;8.63;2.90;;;15.00;99.90;;;;;;5033080;28;20039;-61
2021/08/30 08:16:40;;;;;;;8.73;2.92;;;15.00;99.90;;;;;;5032934;28;20037;-61
2021/08/30 08:19:06;;;;;;;10.50;3.20;;;15.00;99.90;;;;;;5033675;28;20024;-59
2021/08/30 08:21:33;;;;;;;10.18;2.92;;;15.00;99.90;;;;;;5033266;28;20042;-62
2021/08/30 08:24:00;;;;;;;9.98;2.85;;;15.00;99.90;;;;;;5032083;28;20029;-62
2021/08/30 08:26:26;;;;;;;9.10;3.10;;;15.00;99.90;;;;;;5033223;28;20075;-60
2021/08/30 08:28:54;;;;;;;10.27;3.22;;;15.00;99.90;;;;;;5033369;28;20081;-61
2021/08/30 08:31:20;;;;;;;8.52;3.60;;;15.00;99.90;;;;;;5032950;28;20028;-61
2021/08/30 08:33:46;;;;;;;7.50;2.90;;;15.10;99.90;;;;;;5033801;28;20025;-62
2021/08/30 08:36:12;;;;;;;11.47;3.00;;;15.10;99.90;;;;;;5033299;28;20091;-60
2021/08/30 08:38:37;;;;;;;10.02;3.30;;;15.20;99.90;;;;;;5032741;28;20112;-60
2021/08/30 08:41:03;;;;;;;9.65;3.40;;;15.20;99.90;;;;;;5033202;28;20460;-61
2021/08/30 08:43:29;;;;;;;11.05;3.22;;;15.20;99.90;;;;;;5032967;28;20379;-60
2021/08/30 08:45:55;;;;;;;7.47;3.20;;;15.20;99.90;;;;;;5033077;28;20080;-60
2021/08/30 08:48:22;;;;;;;10.48;3.80;;;15.20;99.90;;;;;;5032528;28;20479;-60
2021/08/30 08:50:48;;;;;;;15.30;3.88;;;15.20;99.90;;;;;;5033312;28;20060;-61
2021/08/30 08:53:14;;;;;;;11.43;3.42;;;15.20;99.90;;;;;;5032245;28;20033;-62
2021/08/30 08:55:39;;;;;;;15.68;4.07;;;15.20;99.90;;;;;;5033091;28;20064;-59
2021/08/30 08:58:15;;;;;;;7.93;3.80;;;15.30;99.90;;;;;;5032196;28;20052;-61
2021/08/30 09:00:42;;;;;;;10.70;3.50;;;15.20;99.90;;;;;;5033400;28;20026;-60
2021/08/30 09:03:20;;;;;;;9.77;3.78;;;15.20;99.90;;;;;;5032136;28;20087;-61
2021/08/30 09:05:46;;;;;;;12.15;3.70;;;15.30;99.90;;;;;;5033137;28;20111;-60
2021/08/30 09:08:41;;;;;;;8.23;3.38;;;15.30;99.90;;;;;;5032311;28;20030;-59
2021/08/30 09:11:19;;;;;;;14.75;4.00;;;15.30;99.90;;;;;;5022528;28;20025;-61
2021/08/30 09:13:56;;;;;;;17.42;4.30;;;15.30;99.90;;;;;;5031869;28;20032;-60
2021/08/30 09:16:23;;;;;;;9.70;3.58;;;15.40;99.90;;;;;;5032758;28;20025;-60
2021/08/30 09:18:49;;;;;;;13.02;3.40;;;15.30;99.90;;;;;;5031948;28;20164;-61
2021/08/30 09:21:17;;;;;;;14.73;4.18;;;15.40;99.90;;;;;;5032409;28;20025;-61
2021/08/30 09:23:44;;;;;;;12.30;4.05;;;15.40;99.90;;;;;;5031861;28;20429;-62
2021/08/30 09:26:17;;;;;;;8.10;3.70;;;15.50;99.90;;;;;;5031964;28;20029;-62
2021/08/30 09:28:53;;;;;;;13.63;4.10;;;15.50;99.90;;;;;;5031370;28;20124;-61
2021/08/30 09:31:19;;;;;;;16.33;4.40;;;15.60;99.90;;;;;;5032918;28;20029;-60
2021/08/30 09:33:52;;;;;;;14.88;4.50;;;15.70;99.90;;;;;;5031708;28;20033;-61
2021/08/30 09:36:20;;;;;;;15.77;4.55;;;15.70;99.90;;;;;;5032236;28;20053;-61
2021/08/30 09:38:55;;;;;;;14.68;4.13;;;15.60;99.90;;;;;;5031565;28;20151;-60
2021/08/30 09:41:21;;;;;;;15.75;4.53;;;15.60;99.90;;;;;;5032341;28;20364;-60
2021/08/30 09:43:57;;;;;;;20.15;4.90;;;15.70;99.90;;;;;;5031469;28;20033;-60
2021/08/30 09:46:27;;;;;;;21.27;4.28;;;15.70;99.90;;;;;;5031729;28;20117;-62
2021/08/30 09:48:53;;;;;;;10.68;3.70;;;15.80;99.90;;;;;;5031209;28;20542;-63
2021/08/30 09:51:24;;;;;;;9.38;3.55;;;15.80;99.90;;;;;;5031921;28;20122;-60
2021/08/30 09:53:50;;;;;;;14.70;4.00;;;15.80;99.90;;;;;;5031379;28;20057;-60
2021/08/30 09:56:16;;;;;;;12.95;4.03;;;15.90;99.90;;;;;;5031792;28;20061;-61
2021/08/30 09:58:45;;;;;;;13.70;3.70;;;15.90;99.90;;;;;;5030951;28;20087;-57
2021/08/30 10:01:12;;;;;;;13.77;4.10;;;15.90;99.90;;;;;;5031822;28;20022;-60
2021/08/30 10:03:40;;;;;;;9.73;3.75;;;15.80;99.90;;;;;;5029474;28;20124;-59
2021/08/30 10:06:07;;;;;;;11.73;3.92;;;15.90;99.90;;;;;;5031726;28;20029;-59
2021/08/30 10:08:36;;;;;;;10.05;3.67;;;15.90;99.90;;;;;;5030513;28;20038;-60
2021/08/30 10:11:02;;;;;;;11.27;4.03;;;15.90;99.90;;;;;;5031755;28;20095;-59
2021/08/30 10:13:28;;;;;;;15.23;4.05;;;15.90;99.90;;;;;;5030842;28;20045;-61
2021/08/30 10:15:54;;;;;;;12.32;4.18;;;15.90;99.90;;;;;;5031822;28;20039;-60
2021/08/30 10:18:21;;;;;;;10.60;4.22;;;15.90;99.90;;;;;;5030872;28;20107;-62
2021/08/30 10:20:50;;;;;;;17.20;4.85;;;15.90;99.90;;;;;;5031251;28;20053;-62
2021/08/30 10:23:21;;;;;;;17.67;4.65;;;16.00;99.90;;;;;;5029163;28;20034;-59
2021/08/30 10:26:00;;;;;;;18.23;5.13;;;15.90;99.90;;;;;;5031371;28;20514;-61
2021/08/30 10:28:58;;;;;;;13.70;5.22;;;16.00;99.90;;;;;;5030198;28;20053;-59
2021/08/30 10:31:26;;;;;;;18.95;4.95;;;16.10;99.90;;;;;;5019173;28;20034;-61
2021/08/30 10:33:54;;;;;;;14.98;5.70;;;16.00;99.90;;;;;;5030301;28;20037;-60
2021/08/30 10:36:22;;;;;;;13.15;4.60;;;16.20;99.90;;;;;;5030521;28;20051;-59
2021/08/30 10:39:02;;;;;;;14.80;4.35;;;16.20;99.90;;;;;;5030493;28;20030;-61
2021/08/30 10:41:38;;;;;;;11.63;4.72;;;16.10;99.90;;;;;;5031713;28;20069;-59
2021/08/30 10:44:14;;;;;;;13.80;4.53;;;16.20;99.90;;;;;;5030282;28;20031;-59
2021/08/30 10:46:47;;;;;;;17.75;4.80;;;16.10;99.90;;;;;;5031282;28;20105;-60
2021/08/30 10:49:31;;;;;;;10.80;3.75;;;16.00;99.90;;;;;;5030452;28;20750;-62
2021/08/30 10:52:12;;;;;;;16.85;4.22;;;16.00;99.90;;;;;;5030877;28;20036;-60
2021/08/30 10:54:54;;;;;;;11.23;4.45;;;16.00;99.90;;;;;;5030765;28;20021;-61
2021/08/30 10:57:37;;;;;;;11.00;4.20;;;16.00;99.90;;;;;;5030500;28;20044;-62
2021/08/30 11:00:10;;;;;;;11.88;3.88;;;16.10;99.90;;;;;;5030648;28;20391;-61
2021/08/30 11:02:44;;;;;;;9.90;3.50;;;16.20;99.90;;;;;;5030034;28;20033;-60
2021/08/30 11:05:10;;;;;;;14.38;4.20;;;16.30;99.90;;;;;;5030863;28;20112;-60
2021/08/30 11:07:36;;;;;;;12.93;4.32;;;16.40;99.90;;;;;;5030325;28;20128;-59
2021/08/30 11:10:07;;;;;;;14.75;4.07;;;16.50;99.90;;;;;;5030292;28;20491;-59
2021/08/30 11:12:33;;;;;;;16.23;4.38;;;16.50;99.90;;;;;;5030412;28;20030;-61
2021/08/30 11:14:59;;;;;;;15.25;4.30;;;16.50;99.90;;;;;;5045765;28;20118;-60
2021/08/30 11:17:31;;;;;;;13.15;4.00;;;16.50;99.90;;;;;;5029943;28;20029;-60
2021/08/30 11:19:59;;;;;;;14.15;4.40;;;16.50;99.90;;;;;;5030369;28;20044;-60
2021/08/30 11:22:27;;;;;;;10.38;3.83;;;16.50;99.90;;;;;;5029800;28;20040;-58
2021/08/30 11:24:53;;;;;;;13.48;5.13;;;16.60;99.90;;;;;;5030501;28;20029;-60
2021/08/30 11:27:26;;;;;;;20.65;4.03;;;16.60;99.90;;;;;;5032784;28;20040;-60
2021/08/30 11:29:54;;;;;;;14.93;4.45;;;16.60;99.90;;;;;;5040642;28;20057;-60
2021/08/30 11:32:22;;;;;;;13.05;4.22;;;16.60;99.90;;;;;;5030271;28;20034;-58
2021/08/30 11:34:49;;;;;;;14.43;3.25;;;16.60;99.90;;;;;;5030081;28;20033;-60
2021/08/30 11:37:18;;;;;;;11.77;3.42;;;16.60;99.90;;;;;;5030247;28;20109;-61
2021/08/30 11:39:49;;;;;;;13.55;3.67;;;16.60;99.90;;;;;;5030184;28;20140;-61
2021/08/30 11:42:17;;;;;;;16.83;4.95;;;16.60;99.90;;;;;;5030622;28;20033;-60
2021/08/30 11:44:44;;;;;;;14.10;3.47;;;16.60;99.90;;;;;;5028346;28;20421;-60
2021/08/30 11:47:15;;;;;;;20.90;4.15;;;16.60;99.90;;;;;;5030568;28;20040;-59
2021/08/30 11:49:56;;;;;;;14.45;3.63;;;16.50;99.90;;;;;;5033471;28;20036;-60
2021/08/30 11:52:28;;;;;;;19.27;4.18;;;16.40;99.90;;;;;;5034292;28;20064;-61
2021/08/30 11:55:14;;;;;;;15.60;3.92;;;16.40;99.90;;;;;;5033543;28;20506;-59
2021/08/30 11:57:44;;;;;;;12.00;4.00;;;16.50;99.90;;;;;;5033689;28;20037;-58
2021/08/30 12:00:14;;;;;;;10.85;3.40;;;16.40;99.90;;;;;;5033907;28;20045;-60
2021/08/30 12:02:41;;;;;;;11.75;3.63;;;16.50;99.90;;;;;;5033877;28;20498;-61
2021/08/30 12:05:08;;;;;;;12.98;4.43;;;16.50;99.90;;;;;;5033672;28;20505;-62
2021/08/30 12:07:35;;;;;;;17.05;4.40;;;16.50;99.90;;;;;;5033790;28;20078;-58
2021/08/30 12:10:02;;;;;;;18.38;4.60;;;16.50;99.90;;;;;;5033113;28;20041;-58
2021/08/30 12:12:32;;;;;;;17.23;4.38;;;16.50;99.90;;;;;;5034234;28;20048;-61
2021/08/30 12:15:08;;;;;;;12.43;4.28;;;16.60;99.90;;;;;;5033243;28;20045;-61
2021/08/30 12:17:43;;;;;;;16.27;4.40;;;16.60;99.90;;;;;;5033650;28;20033;-61
2021/08/30 12:20:12;;;;;;;11.60;3.80;;;16.60;99.90;;;;;;5033552;28;20404;-60
2021/08/30 12:22:44;;;;;;;12.80;4.00;;;16.60;99.90;;;;;;5033536;28;20124;-61
2021/08/30 12:25:22;;;;;;;12.20;3.70;;;16.60;99.90;;;;;;5033260;28;20032;-61
2021/08/30 12:27:51;;;;;;;17.55;3.60;;;16.60;99.90;;;;;;5032794;28;20037;-60
2021/08/30 12:30:31;;;;;;;13.75;3.67;;;16.50;99.90;;;;;;5033374;28;20041;-61
2021/08/30 12:33:00;;;;;;;8.18;3.50;;;16.50;99.90;;;;;;5033014;28;20109;-63
2021/08/30 12:35:29;;;;;;;13.05;3.78;;;16.50;99.90;;;;;;5033480;28;20475;-60
2021/08/30 12:38:17;;;;;;;15.07;3.55;;;16.50;99.90;;;;;;5031039;28;20108;-61
2021/08/30 12:40:51;;;;;;;13.68;3.83;;;16.60;99.90;;;;;;5019147;28;20034;-63
2021/08/30 12:43:18;;;;;;;14.23;3.75;;;16.60;99.90;;;;;;5032901;28;20061;-61
2021/08/30 12:45:45;;;;;;;10.43;4.03;;;16.50;99.90;;;;;;5032781;28;20031;-59